Time;durP1;ratioP1;P1;durP2;ratioP2;P2;SDS_P1;SDS_P2;PMS_P1;PMS_P2;Temp;Humidity;BMP_temperature;BMP_pressure;BME280_temperature;BME280_humidity;BME280_pressure;Samples;Min_cycle;Max_cycle;Signal;HPM_P1;HPM_P2
2024/03/28 00:01:30;;;;;;;41.17;24.73;;;;;;;11.85;85.40;98787.94;5072520;28;20040;-39
2024/03/28 00:03:55;;;;;;;42.90;23.20;;;;;;;11.91;85.18;98792.34;5082541;28;20160;-40
2024/03/28 00:06:20;;;;;;;43.45;25.05;;;;;;;12.05;84.11;98776.91;5092125;28;20471;-39
2024/03/28 00:08:46;;;;;;;35.38;22.55;;;;;;;11.94;84.92;98748.44;5091893;28;20024;-39
2024/03/28 00:11:11;;;;;;;41.50;23.17;;;;;;;11.90;85.06;98739.28;5092065;28;20020;-39
2024/03/28 00:13:37;;;;;;;41.05;22.88;;;;;;;12.08;83.99;98748.97;5091851;28;20559;-39
2024/03/28 00:16:03;;;;;;;42.63;22.70;;;;;;;11.93;85.00;98739.59;5092095;28;20032;-39
2024/03/28 00:18:29;;;;;;;39.40;23.20;;;;;;;12.04;85.04;98756.63;5092019;28;20027;-40
2024/03/28 00:20:59;;;;;;;40.60;23.48;;;;;;;12.22;84.17;98758.31;5092143;28;20031;-40
2024/03/28 00:23:25;;;;;;;37.70;22.20;;;;;;;12.07;84.19;98736.66;5091968;28;20027;-40
2024/03/28 00:25:52;;;;;;;40.92;23.27;;;;;;;11.83;85.58;98704.72;5091976;28;20032;-39
2024/03/28 00:28:17;;;;;;;39.63;23.13;;;;;;;11.65;86.54;98655.09;5091661;28;20032;-39
2024/03/28 00:30:43;;;;;;;40.08;23.52;;;;;;;11.82;85.58;98673.81;5090414;28;20031;-39
2024/03/28 00:33:08;;;;;;;49.03;26.70;;;;;;;11.87;86.05;98715.72;5091723;28;20028;-39
2024/03/28 00:35:34;;;;;;;43.38;24.80;;;;;;;12.04;84.55;98713.97;5091471;28;20490;-40
2024/03/28 00:37:59;;;;;;;48.28;26.67;;;;;;;11.97;84.86;98717.81;5091336;28;20043;-40
2024/03/28 00:40:25;;;;;;;46.90;27.10;;;;;;;11.85;85.53;98712.50;5091365;28;20028;-36
2024/03/28 00:42:50;;;;;;;51.90;27.70;;;;;;;12.17;83.34;98688.06;5090518;28;20121;-36
2024/03/28 00:45:15;;;;;;;48.38;26.58;;;;;;;11.72;85.78;98705.56;5091374;28;20476;-40
2024/03/28 00:47:41;;;;;;;45.63;28.13;;;;;;;11.89;85.60;98710.97;5091038;28;20032;-38
2024/03/28 00:50:06;;;;;;;54.38;27.10;;;;;;;11.90;85.15;98709.97;5091189;28;20024;-39
2024/03/28 00:52:32;;;;;;;47.33;27.75;;;;;;;11.79;85.20;98705.44;5082262;28;20037;-40
2024/03/28 00:54:57;;;;;;;49.13;27.73;;;;;;;11.77;84.92;98680.88;5079040;28;20024;-40
2024/03/28 00:57:23;;;;;;;44.55;26.63;;;;;;;11.84;84.96;98686.88;5070730;28;20020;-39
2024/03/28 00:59:51;;;;;;;44.67;27.23;;;;;;;12.20;82.82;98698.22;5070543;28;20115;-39
2024/03/28 01:02:16;;;;;;;47.25;27.60;;;;;;;12.01;83.32;98709.09;5070840;28;20082;-40
2024/03/28 01:04:42;;;;;;;50.00;27.75;;;;;;;11.95;84.13;98703.91;5070993;28;20032;-39
2024/03/28 01:07:07;;;;;;;47.28;28.67;;;;;;;11.97;84.12;98707.94;5070487;28;20036;-36
2024/03/28 01:09:32;;;;;;;47.38;27.05;;;;;;;11.80;84.02;98701.72;5069448;28;20024;-37
2024/03/28 01:11:58;;;;;;;46.97;27.40;;;;;;;12.02;83.96;98688.59;5070387;28;20229;-40
2024/03/28 01:14:23;;;;;;;51.72;28.45;;;;;;;11.80;84.34;98699.06;5070504;28;20032;-40
2024/03/28 01:16:49;;;;;;;46.85;27.13;;;;;;;12.24;82.53;98718.88;5070616;28;20382;-37
2024/03/28 01:19:14;;;;;;;46.03;27.52;;;;;;;12.06;82.49;98697.72;5070655;28;20036;-40
2024/03/28 01:21:39;;;;;;;47.20;27.33;;;;;;;12.13;83.01;98693.88;5074933;28;20020;-39
2024/03/28 01:24:05;;;;;;;48.88;27.75;;;;;;;11.93;83.16;98710.28;5090393;28;20073;-39
2024/03/28 01:26:30;;;;;;;45.90;27.13;;;;;;;11.75;84.31;98702.44;5090534;28;20020;-39
2024/03/28 01:28:56;;;;;;;47.03;27.45;;;;;;;11.84;84.00;98677.03;5082992;28;20033;-39
2024/03/28 01:31:21;;;;;;;49.78;27.50;;;;;;;11.79;83.98;98690.25;5070562;28;20323;-37
2024/03/28 01:33:46;;;;;;;45.78;26.80;;;;;;;11.72;84.67;98677.06;5070248;28;20024;-38
2024/03/28 01:36:12;;;;;;;43.70;26.55;;;;;;;11.62;85.26;98678.72;5070163;28;20103;-40
2024/03/28 01:38:37;;;;;;;45.53;26.52;;;;;;;11.73;84.23;98681.34;5070309;28;20135;-39
2024/03/28 01:41:03;;;;;;;47.50;28.67;;;;;;;11.70;85.20;98676.47;5070308;28;20025;-39
2024/03/28 01:43:28;;;;;;;49.75;29.45;;;;;;;11.72;85.11;98689.56;5070069;28;20044;-39
2024/03/28 01:45:54;;;;;;;45.80;26.90;;;;;;;11.84;84.91;98689.53;5070364;28;20027;-40
2024/03/28 01:48:19;;;;;;;44.20;26.50;;;;;;;11.80;84.47;98685.72;5070186;28;20364;-36
2024/03/28 01:50:45;;;;;;;48.58;26.23;;;;;;;11.67;85.40;98682.31;5069921;28;20029;-38
2024/03/28 01:53:10;;;;;;;47.03;27.63;;;;;;;11.74;84.75;98672.28;5069906;28;20481;-39
2024/03/28 01:55:37;;;;;;;50.83;28.15;;;;;;;11.67;84.69;98681.47;5070161;28;20025;-38
2024/03/28 01:58:04;;;;;;;50.42;27.63;;;;;;;11.54;85.46;98677.25;5070254;28;20126;-38
2024/03/28 02:00:30;;;;;;;47.10;27.25;;;;;;;11.47;86.66;98668.56;5069973;28;20021;-40
2024/03/28 02:02:56;;;;;;;52.40;30.10;;;;;;;11.85;84.21;98710.63;5070256;28;20021;-40
2024/03/28 02:05:22;;;;;;;47.35;27.33;;;;;;;11.35;85.98;98690.72;5069977;28;20452;-39
2024/03/28 02:07:48;;;;;;;46.63;28.25;;;;;;;11.43;85.75;98718.84;5069898;28;20449;-40
2024/03/28 02:10:14;;;;;;;50.65;29.05;;;;;;;11.58;85.63;98681.06;5070016;28;20070;-39
2024/03/28 02:12:40;;;;;;;49.75;27.55;;;;;;;11.33;86.57;98644.06;5069866;28;20052;-39
2024/03/28 02:15:06;;;;;;;47.10;28.02;;;;;;;11.42;86.70;98658.59;5071186;28;20428;-40
2024/03/28 02:17:32;;;;;;;46.70;27.08;;;;;;;11.47;85.98;98679.22;5073388;28;20032;-40
2024/03/28 02:19:57;;;;;;;48.13;27.23;;;;;;;11.50;85.02;98682.22;5078272;28;20024;-36
2024/03/28 02:22:22;;;;;;;45.38;26.88;;;;;;;11.50;86.09;98676.09;5073074;28;20043;-39
2024/03/28 02:24:51;;;;;;;49.25;27.45;;;;;;;11.60;84.73;98680.81;5084389;28;20024;-40
2024/03/28 02:27:17;;;;;;;46.57;26.63;;;;;;;11.58;85.32;98670.38;5083652;28;20448;-40
2024/03/28 02:29:42;;;;;;;49.92;27.88;;;;;;;11.45;86.25;98665.31;5073557;28;20028;-40
2024/03/28 02:32:07;;;;;;;49.60;27.63;;;;;;;11.59;84.76;98666.66;5073826;28;20107;-39
2024/03/28 02:34:33;;;;;;;46.03;26.60;;;;;;;11.54;85.50;98669.25;5073834;28;20477;-40
2024/03/28 02:36:58;;;;;;;44.80;26.23;;;;;;;11.50;86.19;98676.91;5073563;28;20147;-40
2024/03/28 02:39:24;;;;;;;45.55;26.38;;;;;;;11.39;86.81;98672.41;5073355;28;20067;-37
2024/03/28 02:41:49;;;;;;;49.20;28.45;;;;;;;11.46;86.34;98680.25;5073517;28;20027;-40
2024/03/28 02:44:14;;;;;;;48.90;26.13;;;;;;;11.43;85.95;98662.88;5073308;28;20028;-39
2024/03/28 02:46:40;;;;;;;45.15;26.98;;;;;;;11.68;85.09;98651.94;5073363;28;20107;-40
2024/03/28 02:49:05;;;;;;;45.88;26.55;;;;;;;11.26;86.13;98641.50;5073474;28;20017;-40
2024/03/28 02:51:30;;;;;;;45.70;26.33;;;;;;;11.36;85.57;98640.91;5073167;28;20412;-38
2024/03/28 02:53:56;;;;;;;44.03;25.67;;;;;;;11.25;86.01;98639.91;5073209;28;20104;-40
2024/03/28 02:56:21;;;;;;;46.13;25.52;;;;;;;10.83;88.57;98647.22;5073050;28;20043;-40
2024/03/28 02:58:47;;;;;;;43.47;26.88;;;;;;;10.84;88.85;98631.03;5073091;28;20397;-38
2024/03/28 03:01:12;;;;;;;45.00;26.70;;;;;;;10.84;89.18;98632.88;5073202;28;20028;-40
2024/03/28 03:03:37;;;;;;;45.92;27.67;;;;;;;11.05;88.45;98636.78;5073233;28;20099;-38
2024/03/28 03:06:03;;;;;;;49.10;26.95;;;;;;;11.04;88.20;98606.72;5073079;28;20021;-40
2024/03/28 03:08:29;;;;;;;52.88;27.25;;;;;;;11.15;87.79;98610.38;5072895;28;20090;-40
2024/03/28 03:10:54;;;;;;;53.08;25.98;;;;;;;11.13;87.10;98615.13;5072810;28;20024;-40
2024/03/28 03:13:19;;;;;;;46.88;26.35;;;;;;;11.21;87.40;98620.06;5072367;28;20036;-40
2024/03/28 03:15:56;;;;;;;46.75;26.15;;;;;;;11.24;86.94;98613.50;5072678;28;20028;-40
2024/03/28 03:18:26;;;;;;;45.85;25.85;;;;;;;10.98;88.02;98581.00;5072722;28;20516;-39
2024/03/28 03:21:07;;;;;;;43.83;25.73;;;;;;;10.87;89.60;98569.34;5072602;28;20024;-38
2024/03/28 03:23:38;;;;;;;47.30;25.73;;;;;;;10.72;90.39;98548.53;5072471;28;20028;-39
2024/03/28 03:26:19;;;;;;;43.78;26.27;;;;;;;10.96;88.89;98570.59;5072843;28;20039;-38
2024/03/28 03:36:57;;;;;;;45.13;25.55;;;;;;;11.28;87.50;98588.00;5093119;28;20043;-38
2024/03/28 03:39:23;;;;;;;46.15;25.85;;;;;;;11.29;87.38;98600.25;5092251;28;20044;-39
2024/03/28 03:41:49;;;;;;;52.83;25.90;;;;;;;11.47;86.28;98609.97;5092407;28;20012;-39
2024/03/28 03:44:15;;;;;;;45.30;25.27;;;;;;;11.37;86.05;98617.75;5092482;28;20056;-39
2024/03/28 03:46:41;;;;;;;45.97;24.92;;;;;;;11.01;88.81;98630.31;5090932;28;20483;-39
2024/03/28 03:49:06;;;;;;;52.63;26.67;;;;;;;11.04;89.10;98637.81;5107473;28;20084;-39
2024/03/28 03:51:33;;;;;;;48.97;26.88;;;;;;;11.28;87.00;98635.94;5111674;28;20036;-39
2024/03/28 03:53:58;;;;;;;42.35;25.33;;;;;;;11.03;89.11;98629.03;5111360;28;20444;-38
2024/03/28 03:56:24;;;;;;;44.40;25.25;;;;;;;11.05;89.34;98636.78;5109824;28;20070;-39
2024/03/28 03:58:49;;;;;;;52.40;27.42;;;;;;;11.13;89.03;98629.25;5109576;28;20027;-39
2024/03/28 04:01:17;;;;;;;44.20;25.27;;;;;;;11.24;87.77;98622.28;5111338;28;20023;-39
2024/03/28 04:03:43;;;;;;;45.53;26.20;;;;;;;11.38;87.54;98624.69;5091453;28;20189;-39
2024/03/28 04:06:10;;;;;;;46.13;26.17;;;;;;;11.32;87.32;98650.41;5089814;28;20483;-39
2024/03/28 04:08:36;;;;;;;43.13;26.38;;;;;;;11.07;89.30;98640.84;5077918;28;20051;-37
2024/03/28 04:11:01;;;;;;;47.17;26.35;;;;;;;11.03;88.95;98630.91;5091807;28;20074;-39
2024/03/28 04:13:27;;;;;;;46.40;26.95;;;;;;;11.25;87.16;98636.41;5091795;28;20035;-38
2024/03/28 04:15:52;;;;;;;53.22;28.13;;;;;;;11.15;86.83;98624.50;5092030;28;20365;-40
2024/03/28 04:18:17;;;;;;;45.33;27.48;;;;;;;11.18;87.86;98627.75;5080680;28;20036;-39
2024/03/28 04:20:43;;;;;;;53.13;28.38;;;;;;;11.04;87.32;98624.50;5089546;28;20452;-40
2024/03/28 04:23:08;;;;;;;49.47;29.08;;;;;;;11.13;87.04;98617.78;5082057;28;20038;-40
2024/03/28 04:25:34;;;;;;;54.28;29.08;;;;;;;10.92;87.55;98619.22;5091933;28;20110;-38
2024/03/28 04:27:59;;;;;;;46.95;28.40;;;;;;;10.99;87.75;98632.41;5091277;28;20044;-40
2024/03/28 04:30:33;;;;;;;54.45;28.77;;;;;;;11.07;86.89;98637.38;5092100;28;20019;-39
2024/03/28 04:32:59;;;;;;;49.30;28.88;;;;;;;10.98;87.38;98644.88;5085528;28;20028;-38
2024/03/28 04:35:24;;;;;;;50.10;27.73;;;;;;;10.87;88.07;98635.06;5081765;28;20028;-40
2024/03/28 04:37:51;;;;;;;51.70;27.88;;;;;;;10.79;88.78;98628.22;5091713;28;20052;-39
2024/03/28 04:40:17;;;;;;;50.42;27.98;;;;;;;10.70;88.84;98617.16;5091993;28;20123;-44
2024/03/28 04:42:50;;;;;;;49.78;28.20;;;;;;;10.89;88.43;98622.31;5091709;28;20086;-39
2024/03/28 04:45:17;;;;;;;47.72;27.85;;;;;;;11.01;87.59;98615.16;5091588;28;20497;-38
2024/03/28 04:47:47;;;;;;;49.45;28.10;;;;;;;11.08;86.20;98597.19;5091624;28;20411;-39
2024/03/28 04:50:12;;;;;;;49.22;29.02;;;;;;;10.99;87.06;98616.44;5086957;28;20024;-39
2024/03/28 04:52:38;;;;;;;51.80;28.95;;;;;;;10.70;88.05;98616.31;5087972;28;20306;-37
2024/03/28 04:55:03;;;;;;;51.53;28.65;;;;;;;10.79;87.67;98617.59;5070989;28;20032;-38
2024/03/28 04:57:29;;;;;;;51.15;28.88;;;;;;;10.59;89.37;98641.09;5084729;28;20031;-38
2024/03/28 04:59:58;;;;;;;50.42;29.40;;;;;;;10.55;89.74;98630.09;5078148;28;20489;-38
2024/03/28 05:02:24;;;;;;;50.63;29.73;;;;;;;10.89;88.69;98656.94;5082626;28;20031;-38
2024/03/28 05:04:49;;;;;;;48.53;29.65;;;;;;;10.77;89.49;98651.59;5091152;28;20031;-39
2024/03/28 05:07:15;;;;;;;53.05;28.20;;;;;;;11.83;89.27;98672.75;5091502;28;20033;-39
2024/03/28 05:09:40;;;;;;;48.95;27.80;;;;;;;11.54;85.96;98674.56;5088096;28;20024;-39
2024/03/28 05:12:06;;;;;;;49.00;29.13;;;;;;;11.18;87.10;98671.16;5083394;28;20074;-39
2024/03/28 05:14:32;;;;;;;50.47;28.98;;;;;;;11.21;86.70;98680.53;5071653;28;20040;-41
2024/03/28 05:16:57;;;;;;;52.00;28.27;;;;;;;11.26;87.09;98672.66;5069197;28;20055;-38
2024/03/28 05:19:23;;;;;;;52.08;29.38;;;;;;;11.35;86.53;98688.03;5069374;28;20028;-39
2024/03/28 05:21:48;;;;;;;60.47;33.70;;;;;;;11.00;90.83;98693.38;5068959;28;20484;-40
2024/03/28 05:24:13;;;;;;;56.58;32.38;;;;;;;11.06;90.35;98678.34;5069952;28;20040;-41
2024/03/28 05:26:39;;;;;;;50.08;27.48;;;;;;;11.04;89.88;98699.06;5069679;28;20166;-40
2024/03/28 05:29:04;;;;;;;46.85;26.77;;;;;;;10.93;89.82;98679.41;5070921;28;20021;-42
2024/03/28 05:31:31;;;;;;;46.83;26.70;;;;;;;11.03;90.02;98694.78;5070677;28;20481;-43
2024/03/28 05:33:57;;;;;;;49.75;27.15;;;;;;;11.09;89.42;98672.56;5070770;28;20024;-38
2024/03/28 05:36:25;;;;;;;44.90;26.38;;;;;;;10.68;91.64;98685.75;5069568;28;20370;-40
2024/03/28 05:38:51;;;;;;;49.20;26.70;;;;;;;11.00;90.19;98711.22;5076043;28;20048;-40
2024/03/28 05:41:16;;;;;;;45.35;26.15;;;;;;;11.05;89.40;98676.72;5080344;28;20511;-37
2024/03/28 05:43:43;;;;;;;46.42;25.85;;;;;;;11.02;89.57;98670.00;5071660;28;20020;-40
2024/03/28 05:46:08;;;;;;;46.28;25.40;;;;;;;11.20;88.77;98666.41;5071521;28;20464;-39
2024/03/28 05:48:34;;;;;;;48.28;26.88;;;;;;;11.30;88.99;98671.13;5070801;28;20025;-39
2024/03/28 05:50:59;;;;;;;48.38;25.38;;;;;;;11.25;88.52;98693.16;5070771;28;20078;-42
2024/03/28 05:53:24;;;;;;;47.67;26.00;;;;;;;11.43;88.33;98686.06;5070630;28;20024;-44
2024/03/28 05:55:50;;;;;;;48.22;26.45;;;;;;;11.42;88.78;98679.09;5070346;28;20017;-41
2024/03/28 05:58:15;;;;;;;45.10;24.77;;;;;;;11.37;88.26;98710.97;5080838;28;20024;-41
2024/03/28 06:00:41;;;;;;;46.28;24.98;;;;;;;11.50;88.33;98724.06;5090301;28;20590;-40
2024/03/28 06:03:06;;;;;;;48.13;25.77;;;;;;;11.64;87.80;98716.59;5090250;28;20026;-40
2024/03/28 06:05:32;;;;;;;44.17;25.02;;;;;;;11.43;89.35;98718.03;5090342;28;20075;-40
2024/03/28 06:07:57;;;;;;;44.28;25.17;;;;;;;11.55;88.47;98713.47;5090548;28;20031;-40
2024/03/28 06:10:23;;;;;;;46.42;24.73;;;;;;;11.67;87.57;98710.78;5090539;28;20060;-39
2024/03/28 06:12:48;;;;;;;47.28;24.27;;;;;;;11.82;87.49;98703.13;5090511;28;20027;-42
2024/03/28 06:15:14;;;;;;;47.78;25.00;;;;;;;11.86;86.93;98706.09;5090387;28;20099;-40
2024/03/28 06:17:39;;;;;;;43.67;24.77;;;;;;;12.37;85.47;98707.06;5090665;28;20445;-40
2024/03/28 06:20:05;;;;;;;42.58;23.15;;;;;;;12.48;84.95;98716.06;5090910;28;20046;-41
2024/03/28 06:22:31;;;;;;;43.35;21.13;;;;;;;12.55;84.15;98706.06;5090534;28;20537;-40
2024/03/28 06:24:56;;;;;;;38.55;22.35;;;;;;;12.79;83.69;98714.72;5090795;28;20092;-41
2024/03/28 06:27:22;;;;;;;39.47;22.73;;;;;;;12.83;83.15;98717.69;5090409;28;20031;-41
2024/03/28 06:29:51;;;;;;;43.28;21.63;;;;;;;13.08;82.12;98698.63;5090399;28;20639;-40
2024/03/28 06:32:29;;;;;;;43.22;22.98;;;;;;;13.23;81.80;98696.16;5090650;28;20077;-40
2024/03/28 06:34:57;;;;;;;37.95;21.17;;;;;;;13.15;82.12;98698.41;5090330;28;20082;-40
2024/03/28 06:37:23;;;;;;;36.60;22.40;;;;;;;13.48;81.40;98705.59;5090540;28;20035;-40
2024/03/28 06:39:49;;;;;;;42.53;21.67;;;;;;;13.98;79.70;98717.94;5090452;28;20118;-40
2024/03/28 06:42:15;;;;;;;35.50;21.20;;;;;;;14.17;77.90;98717.63;5090570;28;20108;-41
2024/03/28 06:44:44;;;;;;;40.50;21.80;;;;;;;13.97;78.80;98720.88;5090465;28;20412;-40
2024/03/28 06:47:10;;;;;;;35.40;21.60;;;;;;;14.22;78.70;98742.56;5090696;28;20024;-37
2024/03/28 06:49:36;;;;;;;42.22;21.08;;;;;;;14.54;77.92;98743.66;5090421;28;20393;-40
2024/03/28 06:52:01;;;;;;;40.15;21.77;;;;;;;14.60;76.88;98735.47;5090234;28;20031;-43
2024/03/28 06:54:26;;;;;;;36.55;18.50;;;;;;;14.94;74.94;98731.72;5090478;28;20023;-39
2024/03/28 06:56:53;;;;;;;32.78;17.17;;;;;;;14.85;74.77;98744.78;5090501;28;20529;-38
2024/03/28 06:59:19;;;;;;;34.90;19.60;;;;;;;14.82;76.15;98750.66;5090524;28;20031;-38
2024/03/28 07:01:44;;;;;;;31.08;18.08;;;;;;;15.71;73.29;98746.41;5090910;28;20012;-40
2024/03/28 07:04:09;;;;;;;31.02;19.17;;;;;;;16.39;70.99;98734.81;5090616;28;20107;-42
2024/03/28 07:06:35;;;;;;;25.52;17.13;;;;;;;17.40;66.91;98740.47;5090888;28;20026;-41
2024/03/28 07:09:01;;;;;;;39.55;17.10;;;;;;;17.87;65.25;98752.72;5093534;28;20028;-42
2024/03/28 07:11:27;;;;;;;27.58;16.73;;;;;;;18.60;63.28;98764.75;5094763;28;20028;-39
2024/03/28 07:13:53;;;;;;;32.47;16.15;;;;;;;19.09;61.95;98774.63;5093955;28;20507;-41
2024/03/28 07:16:19;;;;;;;26.63;15.35;;;;;;;19.53;59.65;98780.94;5094009;28;20016;-40
2024/03/28 07:18:45;;;;;;;29.30;15.02;;;;;;;19.78;58.20;98765.59;5093697;28;20098;-40
2024/03/28 07:21:11;;;;;;;29.60;15.20;;;;;;;20.05;57.41;98757.72;5093561;28;20491;-43
2024/03/28 07:23:40;;;;;;;29.55;15.30;;;;;;;19.98;56.90;98756.47;5092564;28;20023;-39
2024/03/28 07:26:09;;;;;;;30.50;14.75;;;;;;;19.60;57.32;98738.25;5093541;28;20563;-42
2024/03/28 07:28:35;;;;;;;33.28;16.17;;;;;;;19.99;56.43;98752.66;5093370;28;20032;-42
2024/03/28 07:31:01;;;;;;;33.85;15.57;;;;;;;20.89;54.79;98758.97;5093331;28;20081;-40
2024/03/28 07:33:26;;;;;;;26.52;14.50;;;;;;;21.17;52.54;98764.44;5093305;28;20024;-42
2024/03/28 07:35:52;;;;;;;33.72;15.80;;;;;;;21.41;52.65;98753.47;5091944;28;20032;-41
2024/03/28 07:38:17;;;;;;;34.00;15.27;;;;;;;20.79;53.95;98738.31;5093392;28;20075;-40
2024/03/28 07:40:47;;;;;;;27.35;14.68;;;;;;;21.35;53.23;98747.34;5093563;28;20028;-41
2024/03/28 07:43:13;;;;;;;36.10;14.35;;;;;;;22.10;51.74;98758.09;5093511;28;20106;-41
2024/03/28 07:45:41;;;;;;;27.90;14.25;;;;;;;22.92;47.87;98748.91;5093397;28;20028;-43
2024/03/28 07:48:08;;;;;;;27.83;14.30;;;;;;;22.98;46.23;98747.69;5093549;28;20427;-41
2024/03/28 07:50:34;;;;;;;29.13;13.73;;;;;;;23.31;46.19;98776.50;5093553;28;20079;-40
2024/03/28 07:52:59;;;;;;;29.90;13.77;;;;;;;23.43;47.67;98793.78;5093238;28;20496;-38
2024/03/28 07:55:25;;;;;;;25.65;13.23;;;;;;;22.67;47.73;98784.78;5093337;28;20412;-41
2024/03/28 07:57:51;;;;;;;33.65;15.30;;;;;;;22.09;48.77;98783.59;5093103;28;20453;-38
2024/03/28 08:00:17;;;;;;;24.52;13.48;;;;;;;23.08;47.66;98816.41;5092814;28;20081;-38
2024/03/28 08:02:45;;;;;;;29.58;13.85;;;;;;;23.55;46.61;98823.09;5093007;28;20031;-41
2024/03/28 08:05:14;;;;;;;27.67;15.27;;;;;;;23.20;45.71;98809.31;5092849;28;20038;-39
2024/03/28 08:07:39;;;;;;;27.73;16.38;;;;;;;23.01;46.82;98811.38;5093032;28;20081;-41
2024/03/28 08:10:09;;;;;;;29.60;15.15;;;;;;;23.73;45.78;98815.03;5093067;28;20032;-40
2024/03/28 08:12:34;;;;;;;37.50;14.10;;;;;;;24.59;44.61;98814.47;5092851;28;20020;-40
2024/03/28 08:14:59;;;;;;;28.02;13.10;;;;;;;25.19;43.08;98814.78;5092568;28;20353;-37
2024/03/28 08:17:25;;;;;;;24.17;11.75;;;;;;;25.42;41.73;98809.97;5092591;28;20038;-38
2024/03/28 08:19:50;;;;;;;24.60;9.10;;;;;;;25.54;41.75;98803.81;5092235;28;20038;-41
2024/03/28 08:22:16;;;;;;;25.65;9.35;;;;;;;25.61;42.87;98814.22;5092478;28;20024;-40
2024/03/28 08:24:41;;;;;;;24.50;10.15;;;;;;;25.56;41.77;98818.72;5092611;28;20408;-38
2024/03/28 08:27:07;;;;;;;20.60;9.70;;;;;;;26.14;40.89;98819.16;5092710;28;20381;-36
2024/03/28 08:29:33;;;;;;;25.13;9.23;;;;;;;25.99;39.86;98822.44;5091881;28;20036;-36
2024/03/28 08:31:58;;;;;;;20.08;8.95;;;;;;;25.03;41.88;98821.84;5092223;28;20067;-42
2024/03/28 08:34:25;;;;;;;21.95;10.30;;;;;;;26.19;41.38;98825.53;5092266;28;20032;-40
2024/03/28 08:36:51;;;;;;;25.67;12.75;;;;;;;27.08;40.07;98847.22;5092489;28;20126;-38
2024/03/28 08:39:22;;;;;;;28.92;10.80;;;;;;;27.27;38.75;98839.34;5092257;28;20495;-28
2024/03/28 08:41:48;;;;;;;23.65;10.02;;;;;;;27.41;39.06;98849.97;5092468;28;20062;-26
2024/03/28 08:44:13;;;;;;;20.52;9.43;;;;;;;27.94;36.87;98863.88;5092088;28;20052;-27
2024/03/28 08:46:40;;;;;;;24.92;10.95;;;;;;;27.08;38.49;98860.88;5092028;28;20096;-29
2024/03/28 08:49:08;;;;;;;22.05;10.20;;;;;;;27.02;38.55;98862.22;5092018;28;20420;-28
2024/03/28 08:51:33;;;;;;;22.05;10.23;;;;;;;27.54;38.06;98872.66;5091785;28;20028;-26
2024/03/28 08:53:59;;;;;;;24.50;9.10;;;;;;;28.30;36.71;98889.63;5092062;28;20104;-27
2024/03/28 08:56:24;;;;;;;22.30;8.95;;;;;;;28.13;36.54;98889.88;5091700;28;20035;-28
2024/03/28 08:58:50;;;;;;;20.05;9.27;;;;;;;27.78;37.34;98882.84;5091293;28;20016;-28
2024/03/28 09:01:15;;;;;;;18.50;10.00;;;;;;;27.21;38.52;98889.81;5091396;28;20416;-27
2024/03/28 09:03:42;;;;;;;20.65;9.75;;;;;;;26.63;39.71;98886.09;5091863;28;20024;-27
2024/03/28 09:06:09;;;;;;;24.35;12.23;;;;;;;26.77;40.42;98892.09;5091886;28;20084;-28
2024/03/28 09:08:35;;;;;;;24.13;12.90;;;;;;;25.91;41.29;98896.81;5091611;28;20020;-27
2024/03/28 09:11:01;;;;;;;27.38;12.35;;;;;;;26.60;40.32;98892.19;5091678;28;20024;-27
2024/03/28 09:13:26;;;;;;;22.05;10.52;;;;;;;26.22;40.48;98909.41;5091158;28;20088;-27
2024/03/28 09:15:52;;;;;;;23.10;9.82;;;;;;;24.90;42.86;98894.34;5091285;28;20027;-26
2024/03/28 09:18:17;;;;;;;28.65;9.43;;;;;;;25.16;42.95;98880.75;5091754;28;20027;-29
2024/03/28 09:20:45;;;;;;;23.67;10.25;;;;;;;26.19;41.03;98885.50;5091485;28;20384;-27
2024/03/28 09:23:10;;;;;;;23.25;9.73;;;;;;;26.01;40.74;98882.03;5091539;28;20024;-27
2024/03/28 09:25:36;;;;;;;22.38;8.93;;;;;;;26.05;40.27;98889.25;5091744;28;20024;-28
2024/03/28 09:28:02;;;;;;;29.33;10.00;;;;;;;26.38;40.23;98904.19;5091470;28;20056;-29
2024/03/28 09:30:27;;;;;;;22.27;10.02;;;;;;;25.65;41.59;98900.41;5090731;28;20027;-30
2024/03/28 09:32:54;;;;;;;22.98;8.73;;;;;;;25.09;43.10;98900.31;5091418;28;20407;-29
2024/03/28 09:35:20;;;;;;;25.38;8.30;;;;;;;24.68;44.50;98892.56;5091408;28;20024;-27
2024/03/28 09:37:45;;;;;;;19.48;7.93;;;;;;;25.04;44.47;98894.22;5091068;28;20054;-27
2024/03/28 09:40:13;;;;;;;22.27;7.78;;;;;;;24.93;44.63;98886.34;5091161;28;20552;-27
2024/03/28 09:42:43;;;;;;;22.43;8.47;;;;;;;25.36;45.08;98901.91;5090864;28;20028;-27
2024/03/28 09:45:10;;;;;;;17.58;7.05;;;;;;;25.60;44.00;98899.78;5091494;28;20028;-27
2024/03/28 09:47:36;;;;;;;22.67;6.65;;;;;;;25.80;44.09;98899.09;5091424;28;20036;-28
2024/03/28 09:50:11;;;;;;;21.70;7.82;;;;;;;26.30;43.18;98898.44;5091433;28;20027;-28
2024/03/28 09:52:38;;;;;;;19.58;6.85;;;;;;;26.30;43.05;98894.91;5090823;28;20028;-27
2024/03/28 09:55:07;;;;;;;22.00;6.93;;;;;;;26.05;43.35;98891.97;5091073;28;20028;-29
2024/03/28 09:57:33;;;;;;;20.50;7.50;;;;;;;25.63;43.86;98890.97;5090893;28;20035;-28
2024/03/28 09:59:59;;;;;;;20.52;7.03;;;;;;;26.04;43.40;98892.31;5091296;28;20035;-27
2024/03/28 10:02:59;;;;;;;18.27;6.32;;;;;;;26.05;43.50;98891.19;5091276;28;20020;-29
2024/03/28 10:05:26;;;;;;;16.95;6.13;;;;;;;25.68;43.28;98847.19;5076641;28;20096;-28
2024/03/28 10:07:52;;;;;;;16.15;6.03;;;;;;;26.61;42.35;98874.72;5091163;28;20036;-29
2024/03/28 10:10:17;;;;;;;15.02;5.95;;;;;;;27.04;41.31;98881.78;5090913;28;20028;-27
2024/03/28 10:12:56;;;;;;;23.08;6.32;;;;;;;26.76;41.58;98868.66;5090816;28;20035;-29
2024/03/28 10:15:22;;;;;;;19.23;6.05;;;;;;;26.82;41.07;98853.69;5091146;28;20021;-27
2024/03/28 10:18:06;;;;;;;23.73;6.10;;;;;;;27.02;40.48;98857.53;5090849;28;20039;-31
2024/03/28 10:20:32;;;;;;;19.05;5.97;;;;;;;27.19;40.67;98856.59;5090795;28;20032;-28
2024/03/28 10:22:58;;;;;;;20.90;6.00;;;;;;;27.91;39.57;98861.00;5091022;28;20038;-28
2024/03/28 10:25:25;;;;;;;28.58;5.68;;;;;;;27.87;39.24;98848.03;5090427;28;20525;-27
2024/03/28 10:27:51;;;;;;;21.38;5.53;;;;;;;27.46;39.15;98836.09;5090626;28;20027;-30
2024/03/28 10:30:21;;;;;;;17.15;5.20;;;;;;;27.31;40.25;98831.28;5090629;28;20031;-29
2024/03/28 10:32:57;;;;;;;20.25;6.15;;;;;;;27.40;39.62;98831.22;5090686;28;20391;-27
2024/03/28 10:35:22;;;;;;;17.95;5.50;;;;;;;28.12;38.17;98837.13;5090696;28;20430;-28
2024/03/28 10:38:01;;;;;;;22.67;5.30;;;;;;;27.88;39.00;98830.50;5090230;28;20114;-32
2024/03/28 10:40:27;;;;;;;20.27;5.20;;;;;;;28.59;36.89;98836.59;5090929;28;20108;-29
2024/03/28 10:42:58;;;;;;;17.42;5.18;;;;;;;28.93;36.64;98839.16;5093556;28;20027;-28
2024/03/28 10:45:27;;;;;;;20.17;5.03;;;;;;;28.21;36.96;98834.25;5094509;28;20024;-29
2024/03/28 10:47:54;;;;;;;23.65;5.63;;;;;;;27.71;37.80;98843.56;5094952;28;20032;-28
2024/03/28 10:50:26;;;;;;;16.88;5.07;;;;;;;28.25;36.71;98846.09;5094838;28;20112;-29
2024/03/28 10:52:55;;;;;;;23.10;6.40;;;;;;;28.55;36.84;98845.88;5094328;28;20108;-30
2024/03/28 10:55:32;;;;;;;24.67;5.63;;;;;;;28.25;35.98;98843.34;5094287;28;20148;-28
2024/03/28 10:57:59;;;;;;;24.15;5.65;;;;;;;28.49;36.20;98852.69;5094479;28;20032;-27
2024/03/28 11:00:25;;;;;;;21.65;5.70;;;;;;;27.48;38.00;98850.22;5094297;28;20039;-27
2024/03/28 11:02:51;;;;;;;23.02;5.88;;;;;;;27.83;37.71;98859.97;5094101;28;20027;-28
2024/03/28 11:05:18;;;;;;;22.52;5.55;;;;;;;27.86;37.11;98843.69;5094210;28;20024;-28
2024/03/28 11:07:45;;;;;;;22.50;5.65;;;;;;;28.22;37.12;98844.84;5094075;28;20483;-28
2024/03/28 11:10:10;;;;;;;21.40;5.97;;;;;;;28.56;36.18;98842.78;5094034;28;20055;-29
2024/03/28 11:12:37;;;;;;;21.45;6.00;;;;;;;28.97;36.02;98846.31;5093893;28;20042;-30
2024/03/28 11:15:04;;;;;;;19.58;6.22;;;;;;;29.20;35.09;98838.34;5093800;28;20388;-31
2024/03/28 11:17:30;;;;;;;26.77;5.93;;;;;;;29.56;34.77;98836.56;5094025;28;20055;-28
2024/03/28 11:20:03;;;;;;;21.63;5.60;;;;;;;30.10;34.19;98826.97;5093946;28;20032;-30
2024/03/28 11:22:32;;;;;;;17.85;5.30;;;;;;;30.72;33.12;98820.88;5093655;28;20023;-31
2024/03/28 11:24:57;;;;;;;21.38;5.40;;;;;;;31.09;32.17;98818.53;5094206;28;20027;-28